Portland, Oregon
Traffic Map
Current Weather Conditions
Portland, Oregon
Overcast
Overcast
55°
Feels Like: 55°
Wind Chill: 55° Ceiling: 1800
Heat Index: 55° Visibility: 10mi
Dew Point: 50° Wind: 3mph
Humidity: 83% Direction: 180° (S)
Pressure: 30.14in Gusts: 0mph
Raw Report DataKPDX 231153Z 18003KT 10SM OVC018 13/10 A3014 RMK AO2 SLP206 60000 T01280100 10139 20128 51007
Traffic Incident Summary
Active as of:
Severity:
Category:
InformationThere was an issue retrieving the traffic information for this location. Please try a different location or try again shortly.
Advertisements
Track Severe Weather on mobile